Gabriola, Canada
Current Conditions -  °F | °C
As of 12:00 PM on Thursday 30 Oct 2014 (Local Time) from CYCD Reporting Station
Light Rain Light Rain  
Wind Chill: 52°   Ceiling: 5000
Heat Index: 52°   Visibility: 8mi
Dew Point: 50°   Wind: 7mph
Humidity: 94%   Direction: 90°E
Pressure: 29.8"   Gusts: NA
Location:  49.18°N, 123.85°W
Report Text: CYCD 301900Z 09006KT 8SM -RA FEW005 FEW012 SCT030 BKN050 OVC090 11/10 A2980 RMK SF1SC1SC2SC2AC2 SLP091
Loading
Personal Weather Stations






























Interactive Weather Map
Tropical Storm Tracking
New forecast layout! Learn more

10-Day Weather Forecast

Advertisements
Track Severe Weather on mobile